โซล, ประเทศเกาหลีใต้

01:10 AM KST วัน สิงหาคม 02, 2015 (GMT +0900)
Kimpo International | | Change Station
CLOSE
Current Station
Airport
Location: Seoul Kimpo Airport,
Elevation: 59 ft
Nearby Weather Stations

Elev 59 ft 37.56 °N, 126.79 °E | Updated 10 minutes ago

Mostly Cloudy
มีเมฆคลุมเป็นส่วนใหญ่
81 ฟาเรนไฮน์
Feels Like 85 ฟาเรนไฮน์
N
7
ลม ความผันแปร ลม from ทางทิศใต้

วันนี้
High -- | Low -- ฟาเรนไฮน์
--% Chance of Precip.
Yesterday
High -- | Low -- ฟาเรนไฮน์
Precip. -- นิ้ว
5:36 AM 7:40 PM
พระจันทร์เต็มดวง, 98% visible
ความดัน 29.80 นิ้ว
ทัศนวิสัย 3.7 ไมล์
เมฆ มีเมฆคลุมเป็นบางส่วน 2800 ft
มีเมฆคลุมเป็นส่วนใหญ่ 11000 ft
ดัชนีความร้อน 85 ฟาเรนไฮน์
อุณหภูมิที่อากาศอาจจับตัวเป็นหยาดน้ำค้าง 73 ฟาเรนไฮน์
ความชื้น 79%
Rainfall 0.00 นิ้ว
Snow Depth Not available.
UV 0 out of 12
Pollen Not available.
Air Quality Not available.
Flu Activity Not available.
METAR RKSS 011600Z 19006KT 6000 SCT028 BKN110 27/23 Q1009 TEMPO 4000 -SHRA

More Conditions Fewer Conditions

ความดัน 29.80 นิ้ว
ทัศนวิสัย 3.7 ไมล์
เมฆ มีเมฆคลุมเป็นบางส่วน 2800 ft
มีเมฆคลุมเป็นส่วนใหญ่ 11000 ft
ดัชนีความร้อน 85 ฟาเรนไฮน์
อุณหภูมิที่อากาศอาจจับตัวเป็นหยาดน้ำค้าง 73 ฟาเรนไฮน์
ความชื้น 79%
Rainfall 0.00 นิ้ว
Snow Depth Not available.
UV 0 out of 12
Pollen Not available.
Air Quality Not available.
Flu Activity Not available.
METAR RKSS 011600Z 19006KT 6000 SCT028 BKN110 27/23 Q1009 TEMPO 4000 -SHRA

More Conditions Fewer Conditions

10-Day Weather Forecast

×

Almanac

ดาราศาสตร์

Aug. 02, 2015 Rise Set
Actual Time
Civil Twilight
Nautical Twilight
Astronomical Twilight
Moon
Length Of Visible Light
ความยาวของวัน
Tomorrow will be .
, % of the Moon is Illuminated

Today's Extremes

Country Highs Country Lows

Community

WunderPhotos

Upload Photos

1,842,975 photos uploaded!

WunderBlogs® & News

Nearby

Air Quality

  Air Quality AQ Index Pollutant
Not available.

Snow Depth

Station Depth Elevation

Earthquake Activity

City Distance Mag. Time & Date
Minimum magnitude displayed is 2.5.

Coastal Water Temperatures

สถานที่ อุณหภูมิ

Stations

Nearby Weather Stations

Station Location Temp ลมหนาว อุณหภูมิที่อากาศอาจจับตัวเป็นหยาดน้ำค้าง ความชื้น ลม Precip. Elev ปรับปรุงล่าสุด Type